sensor_id;sensor_type;location;lat;lon;timestamp;P1;durP1;ratioP1;P2;durP2;ratioP2
21810;SDS011;11067;48.788;9.208;2022-11-15T00:02:06;10.73;;;5.97;;
21810;SDS011;11067;48.788;9.208;2022-11-15T00:04:31;10.77;;;6.13;;
21810;SDS011;11067;48.788;9.208;2022-11-15T00:06:57;10.48;;;6.35;;
21810;SDS011;11067;48.788;9.208;2022-11-15T00:09:23;10.17;;;6.00;;
21810;SDS011;11067;48.788;9.208;2022-11-15T00:11:48;10.53;;;6.33;;
21810;SDS011;11067;48.788;9.208;2022-11-15T00:14:14;10.13;;;6.07;;
21810;SDS011;11067;48.788;9.208;2022-11-15T00:16:39;9.03;;;5.87;;
21810;SDS011;11067;48.788;9.208;2022-11-15T00:19:05;8.83;;;5.80;;
21810;SDS011;11067;48.788;9.208;2022-11-15T00:21:30;10.55;;;6.43;;
21810;SDS011;11067;48.788;9.208;2022-11-15T00:23:56;10.25;;;5.78;;
21810;SDS011;11067;48.788;9.208;2022-11-15T00:26:21;11.00;;;6.10;;
21810;SDS011;11067;48.788;9.208;2022-11-15T00:28:47;10.83;;;5.70;;
21810;SDS011;11067;48.788;9.208;2022-11-15T00:31:13;11.05;;;5.95;;
21810;SDS011;11067;48.788;9.208;2022-11-15T00:33:39;10.13;;;6.22;;
21810;SDS011;11067;48.788;9.208;2022-11-15T00:36:06;10.77;;;5.93;;
21810;SDS011;11067;48.788;9.208;2022-11-15T00:38:34;11.63;;;5.93;;
21810;SDS011;11067;48.788;9.208;2022-11-15T00:41:02;10.55;;;5.82;;
21810;SDS011;11067;48.788;9.208;2022-11-15T00:43:29;9.48;;;5.40;;
21810;SDS011;11067;48.788;9.208;2022-11-15T00:45:55;8.38;;;5.35;;
21810;SDS011;11067;48.788;9.208;2022-11-15T00:48:21;7.43;;;5.40;;
21810;SDS011;11067;48.788;9.208;2022-11-15T00:50:46;10.13;;;5.17;;
21810;SDS011;11067;48.788;9.208;2022-11-15T00:53:13;9.05;;;5.05;;
21810;SDS011;11067;48.788;9.208;2022-11-15T00:55:38;9.67;;;5.00;;
21810;SDS011;11067;48.788;9.208;2022-11-15T00:58:04;8.13;;;5.07;;
21810;SDS011;11067;48.788;9.208;2022-11-15T01:00:29;7.45;;;4.40;;
21810;SDS011;11067;48.788;9.208;2022-11-15T01:02:55;8.80;;;5.30;;
21810;SDS011;11067;48.788;9.208;2022-11-15T01:05:20;10.33;;;5.50;;
21810;SDS011;11067;48.788;9.208;2022-11-15T01:07:46;9.07;;;5.27;;
21810;SDS011;11067;48.788;9.208;2022-11-15T01:10:11;8.30;;;5.15;;
21810;SDS011;11067;48.788;9.208;2022-11-15T01:12:37;12.17;;;5.40;;
21810;SDS011;11067;48.788;9.208;2022-11-15T01:15:03;10.90;;;4.97;;
21810;SDS011;11067;48.788;9.208;2022-11-15T01:17:29;9.82;;;5.78;;
21810;SDS011;11067;48.788;9.208;2022-11-15T01:19:55;8.02;;;5.70;;
21810;SDS011;11067;48.788;9.208;2022-11-15T01:22:22;10.13;;;5.53;;
21810;SDS011;11067;48.788;9.208;2022-11-15T01:24:49;8.77;;;5.57;;
21810;SDS011;11067;48.788;9.208;2022-11-15T01:27:15;12.48;;;5.85;;
21810;SDS011;11067;48.788;9.208;2022-11-15T01:29:41;10.38;;;5.38;;
21810;SDS011;11067;48.788;9.208;2022-11-15T01:32:07;10.60;;;5.53;;
21810;SDS011;11067;48.788;9.208;2022-11-15T01:34:33;8.57;;;5.38;;
21810;SDS011;11067;48.788;9.208;2022-11-15T01:36:58;9.02;;;5.50;;
21810;SDS011;11067;48.788;9.208;2022-11-15T01:39:24;8.83;;;5.80;;
21810;SDS011;11067;48.788;9.208;2022-11-15T01:41:50;8.13;;;5.40;;
21810;SDS011;11067;48.788;9.208;2022-11-15T01:47:22;7.68;;;4.97;;
21810;SDS011;11067;48.788;9.208;2022-11-15T01:50:12;9.88;;;5.43;;
21810;SDS011;11067;48.788;9.208;2022-11-15T01:52:40;8.30;;;5.43;;
21810;SDS011;11067;48.788;9.208;2022-11-15T01:57:40;6.97;;;4.70;;
21810;SDS011;11067;48.788;9.208;2022-11-15T02:00:09;6.05;;;4.38;;
21810;SDS011;11067;48.788;9.208;2022-11-15T02:02:36;7.93;;;4.82;;
21810;SDS011;11067;48.788;9.208;2022-11-15T02:05:02;6.20;;;3.83;;
21810;SDS011;11067;48.788;9.208;2022-11-15T02:07:31;6.10;;;4.18;;
21810;SDS011;11067;48.788;9.208;2022-11-15T02:09:59;7.20;;;4.28;;
21810;SDS011;11067;48.788;9.208;2022-11-15T02:12:47;8.18;;;4.65;;
21810;SDS011;11067;48.788;9.208;2022-11-15T02:15:13;6.05;;;4.10;;
21810;SDS011;11067;48.788;9.208;2022-11-15T02:25:53;7.67;;;4.40;;
21810;SDS011;11067;48.788;9.208;2022-11-15T02:28:31;7.78;;;4.40;;
21810;SDS011;11067;48.788;9.208;2022-11-15T02:33:54;5.68;;;4.18;;
21810;SDS011;11067;48.788;9.208;2022-11-15T02:39:32;5.55;;;4.22;;
21810;SDS011;11067;48.788;9.208;2022-11-15T02:42:08;6.40;;;4.40;;
21810;SDS011;11067;48.788;9.208;2022-11-15T02:45:03;5.82;;;4.40;;
21810;SDS011;11067;48.788;9.208;2022-11-15T02:47:33;5.60;;;3.93;;
21810;SDS011;11067;48.788;9.208;2022-11-15T02:50:05;6.00;;;4.07;;
21810;SDS011;11067;48.788;9.208;2022-11-15T02:52:33;6.87;;;4.50;;
21810;SDS011;11067;48.788;9.208;2022-11-15T02:54:59;10.63;;;5.37;;
21810;SDS011;11067;48.788;9.208;2022-11-15T02:58:00;10.37;;;5.10;;
21810;SDS011;11067;48.788;9.208;2022-11-15T03:00:24;8.18;;;4.75;;
21810;SDS011;11067;48.788;9.208;2022-11-15T03:03:08;7.90;;;4.80;;
21810;SDS011;11067;48.788;9.208;2022-11-15T03:05:53;9.45;;;5.13;;
21810;SDS011;11067;48.788;9.208;2022-11-15T03:09:04;8.30;;;5.00;;
21810;SDS011;11067;48.788;9.208;2022-11-15T03:11:47;9.20;;;4.55;;
21810;SDS011;11067;48.788;9.208;2022-11-15T03:14:24;7.10;;;4.87;;
21810;SDS011;11067;48.788;9.208;2022-11-15T03:19:34;9.07;;;5.03;;
21810;SDS011;11067;48.788;9.208;2022-11-15T03:22:11;11.90;;;5.17;;
21810;SDS011;11067;48.788;9.208;2022-11-15T03:24:45;8.00;;;4.80;;
21810;SDS011;11067;48.788;9.208;2022-11-15T03:27:15;6.57;;;4.57;;
21810;SDS011;11067;48.788;9.208;2022-11-15T03:29:47;8.63;;;5.07;;
21810;SDS011;11067;48.788;9.208;2022-11-15T03:32:20;8.20;;;4.95;;
21810;SDS011;11067;48.788;9.208;2022-11-15T03:34:53;9.43;;;5.47;;
21810;SDS011;11067;48.788;9.208;2022-11-15T03:37:24;11.50;;;5.30;;
21810;SDS011;11067;48.788;9.208;2022-11-15T03:40:10;9.55;;;5.45;;
21810;SDS011;11067;48.788;9.208;2022-11-15T03:42:38;10.00;;;5.83;;
21810;SDS011;11067;48.788;9.208;2022-11-15T03:45:16;9.07;;;5.93;;
21810;SDS011;11067;48.788;9.208;2022-11-15T03:47:48;9.97;;;5.70;;
21810;SDS011;11067;48.788;9.208;2022-11-15T03:50:23;12.15;;;5.97;;
21810;SDS011;11067;48.788;9.208;2022-11-15T03:52:49;10.50;;;5.93;;
21810;SDS011;11067;48.788;9.208;2022-11-15T03:55:17;8.77;;;5.88;;
21810;SDS011;11067;48.788;9.208;2022-11-15T03:57:44;8.32;;;5.40;;
21810;SDS011;11067;48.788;9.208;2022-11-15T04:00:12;9.02;;;5.47;;
21810;SDS011;11067;48.788;9.208;2022-11-15T04:02:37;9.80;;;5.55;;
21810;SDS011;11067;48.788;9.208;2022-11-15T04:05:03;9.40;;;5.40;;
21810;SDS011;11067;48.788;9.208;2022-11-15T04:07:29;7.13;;;4.95;;
21810;SDS011;11067;48.788;9.208;2022-11-15T04:09:55;7.00;;;5.07;;
21810;SDS011;11067;48.788;9.208;2022-11-15T04:12:34;8.50;;;5.40;;
21810;SDS011;11067;48.788;9.208;2022-11-15T04:15:02;6.85;;;5.00;;
21810;SDS011;11067;48.788;9.208;2022-11-15T04:17:34;6.35;;;4.75;;
21810;SDS011;11067;48.788;9.208;2022-11-15T04:23:22;7.13;;;4.65;;
21810;SDS011;11067;48.788;9.208;2022-11-15T04:26:08;7.22;;;5.10;;
21810;SDS011;11067;48.788;9.208;2022-11-15T04:28:39;7.00;;;4.20;;
21810;SDS011;11067;48.788;9.208;2022-11-15T04:31:25;6.35;;;4.30;;
21810;SDS011;11067;48.788;9.208;2022-11-15T04:33:52;7.03;;;4.40;;
21810;SDS011;11067;48.788;9.208;2022-11-15T04:36:18;7.00;;;4.75;;
21810;SDS011;11067;48.788;9.208;2022-11-15T04:39:02;6.63;;;4.33;;
21810;SDS011;11067;48.788;9.208;2022-11-15T04:41:28;8.90;;;4.53;;
21810;SDS011;11067;48.788;9.208;2022-11-15T04:43:56;8.10;;;4.88;;
21810;SDS011;11067;48.788;9.208;2022-11-15T04:46:22;6.63;;;4.38;;
21810;SDS011;11067;48.788;9.208;2022-11-15T04:48:49;7.03;;;4.33;;
21810;SDS011;11067;48.788;9.208;2022-11-15T04:51:15;6.10;;;4.47;;
21810;SDS011;11067;48.788;9.208;2022-11-15T04:53:41;9.80;;;4.55;;
21810;SDS011;11067;48.788;9.208;2022-11-15T04:56:06;9.20;;;4.90;;
21810;SDS011;11067;48.788;9.208;2022-11-15T04:58:32;8.98;;;5.25;;
21810;SDS011;11067;48.788;9.208;2022-11-15T05:00:57;8.70;;;5.47;;
21810;SDS011;11067;48.788;9.208;2022-11-15T05:03:23;10.90;;;5.10;;
21810;SDS011;11067;48.788;9.208;2022-11-15T05:06:07;11.23;;;5.53;;
21810;SDS011;11067;48.788;9.208;2022-11-15T05:08:33;10.05;;;5.90;;
21810;SDS011;11067;48.788;9.208;2022-11-15T05:10:58;9.10;;;5.77;;
21810;SDS011;11067;48.788;9.208;2022-11-15T05:13:24;8.43;;;5.50;;
21810;SDS011;11067;48.788;9.208;2022-11-15T05:15:49;10.88;;;5.70;;
21810;SDS011;11067;48.788;9.208;2022-11-15T05:18:15;7.47;;;5.30;;
21810;SDS011;11067;48.788;9.208;2022-11-15T05:20:40;9.05;;;5.32;;
21810;SDS011;11067;48.788;9.208;2022-11-15T05:23:06;9.23;;;5.07;;
21810;SDS011;11067;48.788;9.208;2022-11-15T05:25:32;10.30;;;6.10;;
21810;SDS011;11067;48.788;9.208;2022-11-15T05:27:57;9.00;;;5.80;;
21810;SDS011;11067;48.788;9.208;2022-11-15T05:30:23;11.47;;;5.67;;
21810;SDS011;11067;48.788;9.208;2022-11-15T05:32:48;13.73;;;7.80;;
21810;SDS011;11067;48.788;9.208;2022-11-15T05:35:18;9.32;;;5.50;;
21810;SDS011;11067;48.788;9.208;2022-11-15T05:37:52;11.00;;;6.30;;
21810;SDS011;11067;48.788;9.208;2022-11-15T05:40:17;13.00;;;6.70;;
21810;SDS011;11067;48.788;9.208;2022-11-15T05:42:43;9.57;;;6.03;;
21810;SDS011;11067;48.788;9.208;2022-11-15T05:45:09;11.17;;;5.90;;
21810;SDS011;11067;48.788;9.208;2022-11-15T05:47:36;10.55;;;5.38;;
21810;SDS011;11067;48.788;9.208;2022-11-15T05:50:04;10.75;;;6.18;;
21810;SDS011;11067;48.788;9.208;2022-11-15T05:52:31;11.57;;;6.10;;
21810;SDS011;11067;48.788;9.208;2022-11-15T05:55:00;11.02;;;6.45;;
21810;SDS011;11067;48.788;9.208;2022-11-15T05:57:27;12.18;;;6.32;;
21810;SDS011;11067;48.788;9.208;2022-11-15T05:59:53;12.00;;;6.30;;
21810;SDS011;11067;48.788;9.208;2022-11-15T06:02:20;13.73;;;6.20;;
21810;SDS011;11067;48.788;9.208;2022-11-15T06:04:45;13.17;;;6.23;;
21810;SDS011;11067;48.788;9.208;2022-11-15T06:07:11;12.77;;;6.50;;
21810;SDS011;11067;48.788;9.208;2022-11-15T06:09:36;11.85;;;6.63;;
21810;SDS011;11067;48.788;9.208;2022-11-15T06:12:02;9.55;;;5.72;;
21810;SDS011;11067;48.788;9.208;2022-11-15T06:14:27;13.80;;;6.20;;
21810;SDS011;11067;48.788;9.208;2022-11-15T06:16:53;11.57;;;6.17;;
21810;SDS011;11067;48.788;9.208;2022-11-15T06:19:18;9.33;;;5.27;;
21810;SDS011;11067;48.788;9.208;2022-11-15T06:21:44;10.18;;;5.90;;
21810;SDS011;11067;48.788;9.208;2022-11-15T06:24:10;13.68;;;6.18;;
21810;SDS011;11067;48.788;9.208;2022-11-15T06:26:35;13.23;;;6.85;;
21810;SDS011;11067;48.788;9.208;2022-11-15T06:29:02;11.10;;;6.03;;
21810;SDS011;11067;48.788;9.208;2022-11-15T06:31:29;10.35;;;6.30;;
21810;SDS011;11067;48.788;9.208;2022-11-15T06:33:54;13.52;;;6.82;;
21810;SDS011;11067;48.788;9.208;2022-11-15T06:36:20;13.07;;;6.77;;
21810;SDS011;11067;48.788;9.208;2022-11-15T06:38:46;13.93;;;6.60;;
21810;SDS011;11067;48.788;9.208;2022-11-15T06:41:12;10.63;;;6.40;;
21810;SDS011;11067;48.788;9.208;2022-11-15T06:43:39;11.57;;;6.28;;
21810;SDS011;11067;48.788;9.208;2022-11-15T06:46:05;10.55;;;7.45;;
21810;SDS011;11067;48.788;9.208;2022-11-15T06:48:32;13.43;;;7.25;;
21810;SDS011;11067;48.788;9.208;2022-11-15T06:50:59;13.57;;;6.75;;
21810;SDS011;11067;48.788;9.208;2022-11-15T06:53:26;10.65;;;6.80;;
21810;SDS011;11067;48.788;9.208;2022-11-15T06:55:52;13.07;;;6.82;;
21810;SDS011;11067;48.788;9.208;2022-11-15T06:58:18;12.63;;;7.15;;
21810;SDS011;11067;48.788;9.208;2022-11-15T07:00:45;12.73;;;6.60;;
21810;SDS011;11067;48.788;9.208;2022-11-15T07:03:10;12.60;;;6.63;;
21810;SDS011;11067;48.788;9.208;2022-11-15T07:05:36;10.85;;;6.28;;
21810;SDS011;11067;48.788;9.208;2022-11-15T07:08:02;12.20;;;6.33;;
21810;SDS011;11067;48.788;9.208;2022-11-15T07:10:28;8.82;;;5.90;;
21810;SDS011;11067;48.788;9.208;2022-11-15T07:12:54;11.20;;;6.03;;
21810;SDS011;11067;48.788;9.208;2022-11-15T07:15:20;9.83;;;5.67;;
21810;SDS011;11067;48.788;9.208;2022-11-15T07:17:50;13.98;;;6.07;;
21810;SDS011;11067;48.788;9.208;2022-11-15T07:20:16;8.98;;;5.90;;
21810;SDS011;11067;48.788;9.208;2022-11-15T07:22:42;9.48;;;5.80;;
21810;SDS011;11067;48.788;9.208;2022-11-15T07:25:10;9.60;;;6.45;;
21810;SDS011;11067;48.788;9.208;2022-11-15T07:27:39;12.23;;;6.37;;
21810;SDS011;11067;48.788;9.208;2022-11-15T07:30:04;13.17;;;6.00;;
21810;SDS011;11067;48.788;9.208;2022-11-15T07:32:30;10.77;;;6.75;;
21810;SDS011;11067;48.788;9.208;2022-11-15T07:34:56;9.43;;;6.17;;
21810;SDS011;11067;48.788;9.208;2022-11-15T07:37:22;12.93;;;6.20;;
21810;SDS011;11067;48.788;9.208;2022-11-15T07:39:47;12.67;;;7.27;;
21810;SDS011;11067;48.788;9.208;2022-11-15T07:42:13;12.37;;;6.77;;
21810;SDS011;11067;48.788;9.208;2022-11-15T07:44:57;14.27;;;7.03;;
21810;SDS011;11067;48.788;9.208;2022-11-15T07:47:23;13.87;;;7.30;;
21810;SDS011;11067;48.788;9.208;2022-11-15T07:49:48;15.95;;;7.40;;
21810;SDS011;11067;48.788;9.208;2022-11-15T07:52:14;15.98;;;7.43;;
21810;SDS011;11067;48.788;9.208;2022-11-15T07:54:39;13.37;;;6.57;;
21810;SDS011;11067;48.788;9.208;2022-11-15T07:57:05;16.20;;;6.90;;
21810;SDS011;11067;48.788;9.208;2022-11-15T07:59:32;17.08;;;7.45;;
21810;SDS011;11067;48.788;9.208;2022-11-15T08:01:58;12.48;;;6.35;;
21810;SDS011;11067;48.788;9.208;2022-11-15T08:04:23;11.40;;;6.23;;
21810;SDS011;11067;48.788;9.208;2022-11-15T08:06:49;12.80;;;5.70;;
21810;SDS011;11067;48.788;9.208;2022-11-15T08:09:15;14.97;;;5.97;;
21810;SDS011;11067;48.788;9.208;2022-11-15T08:11:40;9.50;;;5.60;;
21810;SDS011;11067;48.788;9.208;2022-11-15T08:14:06;12.07;;;5.90;;
21810;SDS011;11067;48.788;9.208;2022-11-15T08:16:31;10.50;;;6.23;;
21810;SDS011;11067;48.788;9.208;2022-11-15T08:18:57;10.77;;;6.40;;
21810;SDS011;11067;48.788;9.208;2022-11-15T08:21:22;12.35;;;6.28;;
21810;SDS011;11067;48.788;9.208;2022-11-15T08:23:48;12.60;;;6.05;;
21810;SDS011;11067;48.788;9.208;2022-11-15T08:26:14;10.52;;;5.85;;
21810;SDS011;11067;48.788;9.208;2022-11-15T08:28:40;9.90;;;5.35;;
21810;SDS011;11067;48.788;9.208;2022-11-15T08:31:05;12.03;;;5.40;;
21810;SDS011;11067;48.788;9.208;2022-11-15T08:33:31;11.07;;;5.23;;
21810;SDS011;11067;48.788;9.208;2022-11-15T08:36:00;9.45;;;5.50;;
21810;SDS011;11067;48.788;9.208;2022-11-15T08:38:26;14.32;;;6.25;;
21810;SDS011;11067;48.788;9.208;2022-11-15T08:40:53;9.82;;;5.38;;
21810;SDS011;11067;48.788;9.208;2022-11-15T08:43:28;12.30;;;5.80;;
21810;SDS011;11067;48.788;9.208;2022-11-15T08:45:56;11.33;;;5.93;;
21810;SDS011;11067;48.788;9.208;2022-11-15T08:48:22;10.13;;;5.68;;
21810;SDS011;11067;48.788;9.208;2022-11-15T08:50:48;8.20;;;5.43;;
21810;SDS011;11067;48.788;9.208;2022-11-15T08:53:14;11.60;;;6.20;;
21810;SDS011;11067;48.788;9.208;2022-11-15T08:55:40;11.17;;;6.00;;
21810;SDS011;11067;48.788;9.208;2022-11-15T08:58:05;9.20;;;5.88;;
21810;SDS011;11067;48.788;9.208;2022-11-15T09:00:31;10.67;;;6.30;;
21810;SDS011;11067;48.788;9.208;2022-11-15T09:02:57;9.45;;;5.63;;
21810;SDS011;11067;48.788;9.208;2022-11-15T09:05:24;12.20;;;5.60;;
21810;SDS011;11067;48.788;9.208;2022-11-15T09:07:53;13.10;;;5.53;;
21810;SDS011;11067;48.788;9.208;2022-11-15T09:10:19;9.88;;;5.90;;
21810;SDS011;11067;48.788;9.208;2022-11-15T09:12:45;9.50;;;6.00;;
21810;SDS011;11067;48.788;9.208;2022-11-15T09:15:13;11.13;;;6.32;;
21810;SDS011;11067;48.788;9.208;2022-11-15T09:17:39;14.75;;;6.45;;
21810;SDS011;11067;48.788;9.208;2022-11-15T09:20:05;15.63;;;6.43;;
21810;SDS011;11067;48.788;9.208;2022-11-15T09:22:31;11.13;;;6.55;;
21810;SDS011;11067;48.788;9.208;2022-11-15T09:24:56;10.77;;;6.33;;
21810;SDS011;11067;48.788;9.208;2022-11-15T09:27:22;11.00;;;6.07;;
21810;SDS011;11067;48.788;9.208;2022-11-15T09:29:47;10.18;;;5.72;;
21810;SDS011;11067;48.788;9.208;2022-11-15T09:32:13;12.93;;;5.90;;
21810;SDS011;11067;48.788;9.208;2022-11-15T09:34:38;8.90;;;5.40;;
21810;SDS011;11067;48.788;9.208;2022-11-15T09:37:04;9.05;;;5.03;;
21810;SDS011;11067;48.788;9.208;2022-11-15T09:39:29;7.43;;;5.13;;
21810;SDS011;11067;48.788;9.208;2022-11-15T09:44:46;11.53;;;5.20;;
21810;SDS011;11067;48.788;9.208;2022-11-15T09:50:06;8.63;;;4.40;;
21810;SDS011;11067;48.788;9.208;2022-11-15T09:52:35;9.70;;;4.00;;
21810;SDS011;11067;48.788;9.208;2022-11-15T09:55:03;8.88;;;4.85;;
21810;SDS011;11067;48.788;9.208;2022-11-15T10:05:20;10.85;;;5.00;;
21810;SDS011;11067;48.788;9.208;2022-11-15T10:07:50;6.95;;;4.68;;
21810;SDS011;11067;48.788;9.208;2022-11-15T10:10:39;9.57;;;4.97;;
21810;SDS011;11067;48.788;9.208;2022-11-15T10:13:14;9.05;;;4.97;;
21810;SDS011;11067;48.788;9.208;2022-11-15T10:15:47;7.03;;;4.95;;
21810;SDS011;11067;48.788;9.208;2022-11-15T10:21:00;7.93;;;4.20;;
21810;SDS011;11067;48.788;9.208;2022-11-15T10:23:38;6.55;;;4.18;;
21810;SDS011;11067;48.788;9.208;2022-11-15T10:26:04;7.03;;;3.90;;
21810;SDS011;11067;48.788;9.208;2022-11-15T10:28:36;8.73;;;3.80;;
21810;SDS011;11067;48.788;9.208;2022-11-15T10:31:01;8.10;;;4.10;;
21810;SDS011;11067;48.788;9.208;2022-11-15T10:33:34;7.30;;;4.13;;
21810;SDS011;11067;48.788;9.208;2022-11-15T10:41:13;9.15;;;4.88;;
21810;SDS011;11067;48.788;9.208;2022-11-15T10:43:39;8.77;;;4.80;;
21810;SDS011;11067;48.788;9.208;2022-11-15T10:46:25;10.83;;;5.60;;
21810;SDS011;11067;48.788;9.208;2022-11-15T10:48:50;10.63;;;5.57;;
21810;SDS011;11067;48.788;9.208;2022-11-15T10:51:19;12.53;;;5.60;;
21810;SDS011;11067;48.788;9.208;2022-11-15T10:53:51;11.20;;;4.85;;
21810;SDS011;11067;48.788;9.208;2022-11-15T10:56:17;12.60;;;5.53;;
21810;SDS011;11067;48.788;9.208;2022-11-15T10:58:56;11.82;;;5.32;;
21810;SDS011;11067;48.788;9.208;2022-11-15T11:01:23;12.70;;;5.30;;
21810;SDS011;11067;48.788;9.208;2022-11-15T11:04:03;12.00;;;5.60;;
21810;SDS011;11067;48.788;9.208;2022-11-15T11:06:52;10.18;;;5.53;;
21810;SDS011;11067;48.788;9.208;2022-11-15T11:09:25;10.40;;;5.10;;
21810;SDS011;11067;48.788;9.208;2022-11-15T11:12:03;12.93;;;5.70;;
21810;SDS011;11067;48.788;9.208;2022-11-15T11:14:33;14.10;;;6.10;;
21810;SDS011;11067;48.788;9.208;2022-11-15T11:25:29;8.50;;;4.85;;
21810;SDS011;11067;48.788;9.208;2022-11-15T11:28:36;12.13;;;5.50;;
21810;SDS011;11067;48.788;9.208;2022-11-15T11:31:12;11.63;;;5.77;;
21810;SDS011;11067;48.788;9.208;2022-11-15T11:36:46;9.20;;;5.80;;
21810;SDS011;11067;48.788;9.208;2022-11-15T11:47:46;9.10;;;5.40;;
21810;SDS011;11067;48.788;9.208;2022-11-15T11:50:19;11.40;;;5.67;;
21810;SDS011;11067;48.788;9.208;2022-11-15T11:52:57;9.00;;;5.50;;
21810;SDS011;11067;48.788;9.208;2022-11-15T11:58:22;11.38;;;5.50;;
21810;SDS011;11067;48.788;9.208;2022-11-15T12:03:43;12.60;;;4.97;;
21810;SDS011;11067;48.788;9.208;2022-11-15T12:14:56;9.05;;;4.80;;
21810;SDS011;11067;48.788;9.208;2022-11-15T12:17:28;10.48;;;5.00;;
21810;SDS011;11067;48.788;9.208;2022-11-15T12:20:05;11.20;;;4.50;;
21810;SDS011;11067;48.788;9.208;2022-11-15T12:25:45;12.77;;;5.07;;
21810;SDS011;11067;48.788;9.208;2022-11-15T12:28:30;11.50;;;5.05;;
21810;SDS011;11067;48.788;9.208;2022-11-15T12:33:42;12.38;;;5.10;;
21810;SDS011;11067;48.788;9.208;2022-11-15T12:41:29;15.55;;;5.57;;
21810;SDS011;11067;48.788;9.208;2022-11-15T12:43:59;10.45;;;5.03;;
21810;SDS011;11067;48.788;9.208;2022-11-15T12:48:55;11.45;;;5.05;;
21810;SDS011;11067;48.788;9.208;2022-11-15T12:51:21;9.47;;;5.03;;
21810;SDS011;11067;48.788;9.208;2022-11-15T13:02:20;8.73;;;4.32;;
21810;SDS011;11067;48.788;9.208;2022-11-15T13:04:47;11.57;;;4.32;;
21810;SDS011;11067;48.788;9.208;2022-11-15T13:10:00;6.93;;;3.80;;
21810;SDS011;11067;48.788;9.208;2022-11-15T13:14:58;7.50;;;4.25;;
21810;SDS011;11067;48.788;9.208;2022-11-15T13:17:27;8.30;;;3.70;;
21810;SDS011;11067;48.788;9.208;2022-11-15T13:25:36;11.40;;;3.70;;
21810;SDS011;11067;48.788;9.208;2022-11-15T13:31:03;7.30;;;3.92;;
21810;SDS011;11067;48.788;9.208;2022-11-15T13:33:47;8.77;;;4.18;;
21810;SDS011;11067;48.788;9.208;2022-11-15T13:36:15;6.10;;;4.03;;
21810;SDS011;11067;48.788;9.208;2022-11-15T13:38:44;8.00;;;3.80;;
21810;SDS011;11067;48.788;9.208;2022-11-15T13:41:22;8.75;;;4.05;;
21810;SDS011;11067;48.788;9.208;2022-11-15T13:43:50;6.82;;;4.18;;
21810;SDS011;11067;48.788;9.208;2022-11-15T13:46:20;9.70;;;3.97;;
21810;SDS011;11067;48.788;9.208;2022-11-15T13:49:05;7.38;;;4.20;;
21810;SDS011;11067;48.788;9.208;2022-11-15T13:51:43;8.05;;;4.63;;
21810;SDS011;11067;48.788;9.208;2022-11-15T13:57:05;9.82;;;5.00;;
21810;SDS011;11067;48.788;9.208;2022-11-15T13:59:34;9.98;;;4.55;;
21810;SDS011;11067;48.788;9.208;2022-11-15T14:02:03;7.35;;;4.47;;
21810;SDS011;11067;48.788;9.208;2022-11-15T14:04:38;7.27;;;4.50;;
21810;SDS011;11067;48.788;9.208;2022-11-15T14:07:15;15.57;;;7.80;;
21810;SDS011;11067;48.788;9.208;2022-11-15T14:09:43;16.10;;;5.57;;
21810;SDS011;11067;48.788;9.208;2022-11-15T14:12:23;8.77;;;4.80;;
21810;SDS011;11067;48.788;9.208;2022-11-15T14:14:59;10.23;;;5.27;;
21810;SDS011;11067;48.788;9.208;2022-11-15T14:19:56;9.87;;;5.30;;
21810;SDS011;11067;48.788;9.208;2022-11-15T14:22:25;10.80;;;5.63;;
21810;SDS011;11067;48.788;9.208;2022-11-15T14:30:41;8.18;;;4.90;;
21810;SDS011;11067;48.788;9.208;2022-11-15T14:33:17;9.63;;;6.05;;
21810;SDS011;11067;48.788;9.208;2022-11-15T14:35:54;11.32;;;5.13;;
21810;SDS011;11067;48.788;9.208;2022-11-15T14:38:22;7.72;;;4.93;;
21810;SDS011;11067;48.788;9.208;2022-11-15T14:40:48;12.90;;;4.90;;
21810;SDS011;11067;48.788;9.208;2022-11-15T14:43:14;11.70;;;7.55;;
21810;SDS011;11067;48.788;9.208;2022-11-15T14:45:39;14.73;;;8.43;;
21810;SDS011;11067;48.788;9.208;2022-11-15T14:48:05;9.45;;;5.38;;
21810;SDS011;11067;48.788;9.208;2022-11-15T14:50:31;8.95;;;5.20;;
21810;SDS011;11067;48.788;9.208;2022-11-15T14:52:58;7.90;;;5.00;;
21810;SDS011;11067;48.788;9.208;2022-11-15T14:55:24;9.37;;;4.90;;
21810;SDS011;11067;48.788;9.208;2022-11-15T14:57:50;7.95;;;5.13;;
21810;SDS011;11067;48.788;9.208;2022-11-15T15:00:17;7.63;;;5.05;;
21810;SDS011;11067;48.788;9.208;2022-11-15T15:02:44;10.70;;;5.75;;
21810;SDS011;11067;48.788;9.208;2022-11-15T15:07:45;7.65;;;4.82;;
21810;SDS011;11067;48.788;9.208;2022-11-15T15:10:11;10.45;;;5.68;;
21810;SDS011;11067;48.788;9.208;2022-11-15T15:12:37;9.95;;;4.85;;
21810;SDS011;11067;48.788;9.208;2022-11-15T15:15:04;10.00;;;5.40;;
21810;SDS011;11067;48.788;9.208;2022-11-15T15:17:30;7.18;;;5.10;;
21810;SDS011;11067;48.788;9.208;2022-11-15T15:19:56;10.05;;;5.13;;
21810;SDS011;11067;48.788;9.208;2022-11-15T15:22:21;11.20;;;5.37;;
21810;SDS011;11067;48.788;9.208;2022-11-15T15:24:50;8.65;;;4.80;;
21810;SDS011;11067;48.788;9.208;2022-11-15T15:27:15;9.05;;;5.10;;
21810;SDS011;11067;48.788;9.208;2022-11-15T15:29:41;11.25;;;5.07;;
21810;SDS011;11067;48.788;9.208;2022-11-15T15:32:08;7.90;;;4.37;;
21810;SDS011;11067;48.788;9.208;2022-11-15T15:34:36;12.82;;;8.55;;
21810;SDS011;11067;48.788;9.208;2022-11-15T15:37:08;6.10;;;4.43;;
21810;SDS011;11067;48.788;9.208;2022-11-15T15:39:34;10.38;;;4.68;;
21810;SDS011;11067;48.788;9.208;2022-11-15T15:42:00;7.28;;;4.38;;
21810;SDS011;11067;48.788;9.208;2022-11-15T15:44:25;7.55;;;4.53;;
21810;SDS011;11067;48.788;9.208;2022-11-15T15:46:51;8.97;;;5.03;;
21810;SDS011;11067;48.788;9.208;2022-11-15T15:49:17;8.77;;;5.00;;
21810;SDS011;11067;48.788;9.208;2022-11-15T15:51:43;7.90;;;4.67;;
21810;SDS011;11067;48.788;9.208;2022-11-15T15:54:08;11.03;;;5.20;;
21810;SDS011;11067;48.788;9.208;2022-11-15T15:56:34;8.52;;;5.22;;
21810;SDS011;11067;48.788;9.208;2022-11-15T15:58:59;9.07;;;4.53;;
21810;SDS011;11067;48.788;9.208;2022-11-15T16:01:25;10.27;;;5.53;;
21810;SDS011;11067;48.788;9.208;2022-11-15T16:03:50;7.75;;;3.85;;
21810;SDS011;11067;48.788;9.208;2022-11-15T16:09:02;10.60;;;6.80;;
21810;SDS011;11067;48.788;9.208;2022-11-15T16:11:28;6.55;;;4.20;;
21810;SDS011;11067;48.788;9.208;2022-11-15T16:13:53;9.23;;;4.73;;
21810;SDS011;11067;48.788;9.208;2022-11-15T16:16:19;7.35;;;4.13;;
21810;SDS011;11067;48.788;9.208;2022-11-15T16:18:46;7.22;;;4.10;;
21810;SDS011;11067;48.788;9.208;2022-11-15T16:21:11;7.28;;;3.25;;
21810;SDS011;11067;48.788;9.208;2022-11-15T16:23:37;8.50;;;3.60;;
21810;SDS011;11067;48.788;9.208;2022-11-15T16:26:06;7.18;;;3.78;;
21810;SDS011;11067;48.788;9.208;2022-11-15T16:28:52;5.53;;;3.42;;
21810;SDS011;11067;48.788;9.208;2022-11-15T16:31:18;5.83;;;3.10;;
21810;SDS011;11067;48.788;9.208;2022-11-15T16:33:46;9.97;;;4.17;;
21810;SDS011;11067;48.788;9.208;2022-11-15T16:36:22;5.60;;;2.97;;
21810;SDS011;11067;48.788;9.208;2022-11-15T16:38:49;4.40;;;3.25;;
21810;SDS011;11067;48.788;9.208;2022-11-15T16:41:15;6.32;;;3.50;;
21810;SDS011;11067;48.788;9.208;2022-11-15T16:43:43;8.20;;;3.70;;
21810;SDS011;11067;48.788;9.208;2022-11-15T16:46:15;6.93;;;3.60;;
21810;SDS011;11067;48.788;9.208;2022-11-15T16:48:45;11.57;;;4.15;;
21810;SDS011;11067;48.788;9.208;2022-11-15T16:51:11;10.50;;;5.47;;
21810;SDS011;11067;48.788;9.208;2022-11-15T16:53:37;10.50;;;4.93;;
21810;SDS011;11067;48.788;9.208;2022-11-15T16:56:03;10.80;;;4.32;;
21810;SDS011;11067;48.788;9.208;2022-11-15T16:58:37;7.85;;;4.60;;
21810;SDS011;11067;48.788;9.208;2022-11-15T17:01:02;7.27;;;4.70;;
21810;SDS011;11067;48.788;9.208;2022-11-15T17:03:29;13.35;;;5.20;;
21810;SDS011;11067;48.788;9.208;2022-11-15T17:05:56;9.35;;;5.13;;